Time;durP1;ratioP1;P1;durP2;ratioP2;P2;SDS_P1;SDS_P2;PMS_P1;PMS_P2;Temp;Humidity;BMP_temperature;BMP_pressure;BME280_temperature;BME280_humidity;BME280_pressure;Samples;Min_cycle;Max_cycle;Signal;HPM_P1;HPM_P2
2022/05/15 00:02:40;;;;;;;8.10;7.30;;;15.70;62.10;;;;;;5101833;28;20500;-67
2022/05/15 00:05:08;;;;;;;9.50;8.18;;;15.60;62.70;;;;;;5097005;28;20428;-68
2022/05/15 00:07:34;;;;;;;8.95;8.00;;;15.60;61.80;;;;;;5099093;28;20440;-68
2022/05/15 00:10:01;;;;;;;9.15;8.25;;;15.60;63.00;;;;;;5103189;28;20432;-68
2022/05/15 00:12:29;;;;;;;9.20;8.40;;;15.60;62.90;;;;;;5101965;28;20424;-67
2022/05/15 00:14:56;;;;;;;9.10;8.30;;;15.60;63.80;;;;;;5094858;28;20531;-68
2022/05/15 00:17:22;;;;;;;8.90;8.10;;;15.50;63.90;;;;;;5104111;28;20469;-68
2022/05/15 00:19:49;;;;;;;9.93;8.68;;;15.50;64.00;;;;;;5098660;28;20443;-67
2022/05/15 00:22:16;;;;;;;10.38;8.70;;;15.40;64.00;;;;;;5103525;28;20864;-67
2022/05/15 00:24:43;;;;;;;9.52;8.65;;;15.40;64.40;;;;;;5103355;28;20420;-68
2022/05/15 00:27:09;;;;;;;9.15;8.25;;;15.30;64.50;;;;;;5101089;28;20428;-67
2022/05/15 00:29:38;;;;;;;9.18;8.27;;;15.30;64.80;;;;;;5100424;28;20847;-68
2022/05/15 00:32:06;;;;;;;9.68;8.65;;;15.30;65.00;;;;;;5097175;28;21103;-68
2022/05/15 00:34:32;;;;;;;9.40;8.43;;;15.30;64.90;;;;;;5096803;28;20467;-67
2022/05/15 00:36:59;;;;;;;10.38;8.63;;;15.30;64.50;;;;;;5098222;28;20431;-67
2022/05/15 00:39:26;;;;;;;9.65;8.80;;;15.30;65.30;;;;;;5098944;28;20469;-68
2022/05/15 00:41:52;;;;;;;9.10;8.20;;;15.30;65.10;;;;;;5100261;28;20428;-67
2022/05/15 00:44:19;;;;;;;9.20;8.30;;;15.20;65.50;;;;;;5103039;28;20435;-68
2022/05/15 00:46:47;;;;;;;9.40;8.60;;;15.10;65.40;;;;;;5098623;28;20495;-68
2022/05/15 00:49:15;;;;;;;9.50;8.70;;;15.10;66.40;;;;;;5098096;28;20507;-69
2022/05/15 00:51:45;;;;;;;10.73;8.88;;;15.00;66.30;;;;;;5100356;28;20928;-67
2022/05/15 00:54:17;;;;;;;9.07;8.27;;;15.10;66.80;;;;;;5094581;27;20452;-69
2022/05/15 00:56:49;;;;;;;9.25;8.35;;;15.00;66.70;;;;;;5097159;28;20427;-68
2022/05/15 00:59:20;;;;;;;9.90;8.87;;;15.00;66.50;;;;;;5095917;27;20461;-69
2022/05/15 01:01:48;;;;;;;9.40;8.60;;;14.90;66.70;;;;;;5100177;27;20425;-69
2022/05/15 01:04:16;;;;;;;8.73;7.93;;;14.90;66.30;;;;;;5097719;28;20420;-67
2022/05/15 01:06:43;;;;;;;9.63;8.70;;;14.90;66.30;;;;;;5086697;28;20531;-67
2022/05/15 01:09:11;;;;;;;9.70;8.43;;;14.90;67.00;;;;;;5098631;27;20418;-67
2022/05/15 01:11:39;;;;;;;9.43;8.52;;;14.90;66.40;;;;;;5097821;27;20927;-67
2022/05/15 01:14:10;;;;;;;9.32;8.32;;;14.80;66.40;;;;;;5095579;28;20459;-67
2022/05/15 01:16:37;;;;;;;10.00;9.00;;;14.80;66.30;;;;;;5096384;28;20925;-67
2022/05/15 01:19:06;;;;;;;9.48;8.57;;;14.80;66.20;;;;;;5093977;28;20427;-67
2022/05/15 01:21:37;;;;;;;9.10;8.20;;;14.70;65.80;;;;;;5094952;27;20432;-68
2022/05/15 01:24:06;;;;;;;8.80;8.10;;;14.70;66.50;;;;;;5098092;27;20823;-68
2022/05/15 01:26:34;;;;;;;8.73;8.02;;;14.70;65.90;;;;;;5099141;28;20965;-67
2022/05/15 01:29:02;;;;;;;9.35;8.45;;;14.70;65.80;;;;;;5103541;28;20435;-67
2022/05/15 01:31:28;;;;;;;9.10;8.20;;;14.70;65.90;;;;;;5095717;28;20482;-67
2022/05/15 01:33:55;;;;;;;9.40;8.50;;;14.70;66.20;;;;;;5092065;28;20423;-68
2022/05/15 01:36:24;;;;;;;9.13;8.32;;;14.60;66.90;;;;;;5091607;28;20429;-67
2022/05/15 01:38:53;;;;;;;9.55;8.65;;;14.60;66.90;;;;;;5102375;28;20804;-68
2022/05/15 01:41:20;;;;;;;9.90;8.90;;;14.50;67.50;;;;;;5102009;28;20943;-68
2022/05/15 01:43:49;;;;;;;9.20;8.40;;;14.50;66.90;;;;;;5100624;28;20514;-67
2022/05/15 01:46:16;;;;;;;9.88;8.98;;;14.50;67.20;;;;;;5100559;28;20428;-67
2022/05/15 01:48:42;;;;;;;10.48;9.45;;;14.50;67.20;;;;;;5091385;28;20430;-68
2022/05/15 01:51:09;;;;;;;10.10;9.20;;;14.50;67.40;;;;;;5102495;27;20935;-67
2022/05/15 01:53:36;;;;;;;10.07;9.15;;;14.50;67.10;;;;;;5091724;28;20498;-67
2022/05/15 01:56:05;;;;;;;10.27;9.27;;;14.50;67.40;;;;;;5094536;28;20440;-67
2022/05/15 01:58:32;;;;;;;10.00;9.00;;;14.50;66.70;;;;;;5098950;28;20516;-67
2022/05/15 02:00:59;;;;;;;10.57;9.57;;;14.50;67.30;;;;;;5098836;28;20485;-67
2022/05/15 02:03:26;;;;;;;10.60;9.50;;;14.50;67.60;;;;;;5102978;28;20800;-67
2022/05/15 02:05:53;;;;;;;11.10;9.82;;;14.50;68.00;;;;;;5097932;28;20436;-67
2022/05/15 02:08:19;;;;;;;10.90;9.50;;;14.40;67.50;;;;;;5093461;28;20432;-68
2022/05/15 02:10:47;;;;;;;10.03;9.13;;;14.40;66.60;;;;;;5100602;28;20432;-67
2022/05/15 02:13:15;;;;;;;10.60;9.60;;;14.40;66.50;;;;;;5102949;28;20891;-67
2022/05/15 02:15:42;;;;;;;10.30;9.30;;;14.30;66.60;;;;;;5093329;28;20443;-67
2022/05/15 02:18:09;;;;;;;10.35;9.45;;;14.30;67.60;;;;;;5096556;28;20445;-68
2022/05/15 02:20:36;;;;;;;10.25;9.35;;;14.30;66.80;;;;;;5096543;28;20436;-67
2022/05/15 02:23:02;;;;;;;9.57;8.82;;;14.30;67.30;;;;;;5097346;28;20431;-67
2022/05/15 02:25:31;;;;;;;10.48;9.38;;;14.30;66.50;;;;;;5100268;28;20428;-67
2022/05/15 02:27:58;;;;;;;10.40;9.40;;;14.20;66.90;;;;;;5092127;28;20444;-67
2022/05/15 02:30:26;;;;;;;10.55;9.55;;;14.30;67.20;;;;;;5093388;28;20463;-68
2022/05/15 02:32:53;;;;;;;9.95;9.05;;;14.20;67.10;;;;;;5102934;28;20445;-67
2022/05/15 02:35:20;;;;;;;10.98;9.88;;;14.20;67.50;;;;;;5093517;28;20433;-67
2022/05/15 02:37:47;;;;;;;10.10;9.20;;;14.10;67.90;;;;;;5102748;27;20915;-68
2022/05/15 02:40:16;;;;;;;10.63;9.73;;;14.10;68.80;;;;;;5101501;28;20538;-67
2022/05/15 02:42:43;;;;;;;11.07;9.98;;;14.10;69.40;;;;;;5108317;27;20416;-67
2022/05/15 02:45:11;;;;;;;10.07;9.15;;;14.10;69.30;;;;;;5101452;28;20960;-67
2022/05/15 02:47:39;;;;;;;9.90;9.00;;;14.10;69.40;;;;;;5097438;28;20492;-67
2022/05/15 02:52:53;;;;;;;11.00;10.10;;;14.00;69.70;;;;;;5104428;27;20561;-68
2022/05/15 02:55:20;;;;;;;11.35;10.25;;;14.00;70.20;;;;;;5098463;28;20425;-68
2022/05/15 02:57:48;;;;;;;11.93;10.63;;;14.00;70.20;;;;;;5097867;28;20420;-68
2022/05/15 03:00:16;;;;;;;11.32;10.32;;;14.00;70.10;;;;;;5095144;28;20437;-67
2022/05/15 03:05:14;;;;;;;10.70;9.70;;;13.90;70.30;;;;;;5101779;27;20431;-71
2022/05/15 03:07:42;;;;;;;11.70;10.80;;;13.90;70.70;;;;;;5110070;27;20819;-69
2022/05/15 03:10:11;;;;;;;11.65;10.45;;;13.80;70.40;;;;;;5106343;28;20437;-69
2022/05/15 03:12:38;;;;;;;11.10;10.10;;;13.80;71.00;;;;;;5109506;28;20424;-71
2022/05/15 03:15:06;;;;;;;11.70;10.70;;;13.80;70.90;;;;;;5094510;28;20839;-69
2022/05/15 03:17:33;;;;;;;11.55;10.55;;;13.80;70.60;;;;;;5095238;28;20430;-69
2022/05/15 03:20:00;;;;;;;10.63;9.63;;;13.80;70.70;;;;;;5096638;28;20475;-71
2022/05/15 03:22:28;;;;;;;11.82;10.73;;;13.80;69.80;;;;;;5100543;28;20898;-69
2022/05/15 03:24:54;;;;;;;10.70;9.80;;;13.80;70.10;;;;;;5082135;28;20491;-70
2022/05/15 03:27:21;;;;;;;11.40;10.40;;;13.70;70.40;;;;;;5096521;28;20424;-69
2022/05/15 03:29:48;;;;;;;10.85;9.85;;;13.60;70.20;;;;;;5100375;28;20913;-69
2022/05/15 03:32:14;;;;;;;12.20;11.02;;;13.60;71.00;;;;;;5088788;28;20911;-70
2022/05/15 03:34:41;;;;;;;11.50;10.40;;;13.60;71.00;;;;;;5090144;28;20425;-69
2022/05/15 03:37:08;;;;;;;12.23;10.80;;;13.70;71.10;;;;;;5102242;28;20421;-69
2022/05/15 03:39:36;;;;;;;11.53;10.43;;;13.60;71.40;;;;;;5090551;28;20942;-69
2022/05/15 03:42:04;;;;;;;11.80;10.85;;;13.70;71.60;;;;;;5090738;28;20420;-69
2022/05/15 03:44:30;;;;;;;11.77;10.68;;;13.60;71.60;;;;;;5093497;28;20436;-69
2022/05/15 03:46:57;;;;;;;11.80;10.80;;;13.60;72.00;;;;;;5095380;28;20429;-69
2022/05/15 03:49:24;;;;;;;13.10;12.00;;;13.60;72.50;;;;;;5095129;28;20796;-69
2022/05/15 03:51:50;;;;;;;12.85;11.65;;;13.60;72.70;;;;;;5086505;28;20425;-70
2022/05/15 03:54:17;;;;;;;12.07;11.07;;;13.60;72.40;;;;;;5087660;28;20459;-70
2022/05/15 03:56:51;;;;;;;12.97;11.87;;;13.60;72.30;;;;;;5086538;28;20429;-70
2022/05/15 03:59:20;;;;;;;12.35;11.27;;;13.60;72.70;;;;;;5091996;28;20426;-69
2022/05/15 04:01:48;;;;;;;12.50;11.50;;;13.50;72.80;;;;;;5085060;28;20855;-69
2022/05/15 04:04:14;;;;;;;12.43;11.50;;;13.50;73.30;;;;;;5087223;28;20425;-69
2022/05/15 04:06:41;;;;;;;12.80;11.80;;;13.50;73.20;;;;;;5090067;28;20421;-69
2022/05/15 04:09:08;;;;;;;12.50;11.40;;;13.40;73.20;;;;;;5093064;28;20482;-69
2022/05/15 04:11:35;;;;;;;12.00;10.90;;;13.40;73.00;;;;;;5086729;28;20430;-69
2022/05/15 04:14:03;;;;;;;12.05;11.05;;;13.40;72.60;;;;;;5094445;28;20430;-69
2022/05/15 04:16:30;;;;;;;11.70;10.80;;;13.40;73.00;;;;;;5089814;28;20420;-70
2022/05/15 04:18:57;;;;;;;11.80;10.80;;;13.40;73.20;;;;;;5095317;28;21184;-70
2022/05/15 04:21:24;;;;;;;11.02;10.07;;;13.40;72.50;;;;;;5092837;28;20430;-69
2022/05/15 04:23:51;;;;;;;12.00;10.98;;;13.40;72.80;;;;;;5086889;28;20434;-69
2022/05/15 04:26:18;;;;;;;12.30;11.02;;;13.40;72.80;;;;;;5081805;28;20451;-70
2022/05/15 04:28:45;;;;;;;10.77;9.90;;;13.30;71.70;;;;;;5089970;28;20910;-73
2022/05/15 04:31:13;;;;;;;12.05;10.95;;;13.30;72.00;;;;;;5087324;28;20946;-69
2022/05/15 04:33:39;;;;;;;11.15;10.05;;;13.30;72.10;;;;;;5092704;28;20437;-70
2022/05/15 04:36:06;;;;;;;11.30;10.30;;;13.30;71.90;;;;;;5088213;28;20425;-70
2022/05/15 04:38:33;;;;;;;11.30;10.37;;;13.30;72.40;;;;;;5097055;28;21123;-69
2022/05/15 04:41:00;;;;;;;10.40;9.50;;;13.30;72.10;;;;;;5092645;28;20434;-71
2022/05/15 04:43:26;;;;;;;10.00;9.20;;;13.30;71.20;;;;;;5086566;28;21127;-69
2022/05/15 04:45:53;;;;;;;11.70;10.60;;;13.40;71.00;;;;;;5087084;28;20562;-70
2022/05/15 04:48:21;;;;;;;11.30;10.20;;;13.40;71.40;;;;;;5088512;28;20430;-69
2022/05/15 04:50:48;;;;;;;10.82;9.90;;;13.40;71.40;;;;;;5090640;28;20430;-69
2022/05/15 04:53:14;;;;;;;10.90;10.00;;;13.50;71.10;;;;;;5094000;28;20498;-69
2022/05/15 04:55:41;;;;;;;12.20;11.00;;;13.60;71.20;;;;;;5088186;28;20463;-69
2022/05/15 04:58:07;;;;;;;12.13;11.03;;;13.60;71.30;;;;;;5090522;28;20439;-70
2022/05/15 05:00:34;;;;;;;12.50;11.45;;;13.60;72.30;;;;;;5086736;28;20518;-69
2022/05/15 05:03:01;;;;;;;12.90;11.80;;;13.60;72.30;;;;;;5094071;28;20432;-69
2022/05/15 05:05:29;;;;;;;12.95;11.85;;;13.60;72.80;;;;;;5093006;28;20463;-68
2022/05/15 05:07:55;;;;;;;13.07;12.07;;;13.60;72.30;;;;;;5095290;28;20970;-69
2022/05/15 05:10:22;;;;;;;12.30;11.20;;;13.70;71.20;;;;;;5090588;28;20426;-69
2022/05/15 05:12:49;;;;;;;11.65;10.73;;;13.70;71.70;;;;;;5089713;28;20489;-70
2022/05/15 05:15:16;;;;;;;12.15;11.05;;;13.70;71.40;;;;;;5086844;28;20513;-69
2022/05/15 05:17:43;;;;;;;11.80;10.80;;;13.70;70.80;;;;;;5088311;28;20425;-69
2022/05/15 05:20:11;;;;;;;12.20;11.07;;;13.80;69.90;;;;;;5086106;28;20430;-69
2022/05/15 05:22:39;;;;;;;10.40;9.50;;;13.80;69.70;;;;;;5087719;28;20422;-69
2022/05/15 05:25:08;;;;;;;10.00;9.20;;;13.90;68.70;;;;;;5097387;28;20479;-69
2022/05/15 05:27:36;;;;;;;9.70;8.80;;;13.90;68.00;;;;;;5087845;28;20488;-69
2022/05/15 05:30:04;;;;;;;10.13;9.10;;;13.90;68.50;;;;;;5090283;28;20432;-69
2022/05/15 05:32:31;;;;;;;11.00;9.18;;;13.90;68.20;;;;;;5088565;28;20846;-69
2022/05/15 05:34:58;;;;;;;11.15;9.43;;;13.90;68.60;;;;;;5090639;28;20428;-69
2022/05/15 05:37:24;;;;;;;10.55;9.57;;;14.00;68.40;;;;;;5090461;28;20486;-69
2022/05/15 05:39:52;;;;;;;10.30;9.43;;;14.10;68.10;;;;;;5097764;28;20481;-69
2022/05/15 05:42:19;;;;;;;10.60;9.70;;;14.10;67.90;;;;;;5092042;28;20490;-69
2022/05/15 05:44:46;;;;;;;9.55;8.85;;;14.10;68.00;;;;;;5091637;28;20939;-69
2022/05/15 05:47:12;;;;;;;11.10;10.07;;;14.10;68.10;;;;;;5085623;28;20425;-69
2022/05/15 05:49:39;;;;;;;10.03;9.00;;;14.20;68.40;;;;;;5085404;28;20444;-69
2022/05/15 05:52:06;;;;;;;10.07;9.07;;;14.20;67.60;;;;;;5086395;28;20434;-69
2022/05/15 05:54:33;;;;;;;10.20;9.07;;;14.30;67.40;;;;;;5087254;28;20430;-69
2022/05/15 05:57:01;;;;;;;8.70;7.90;;;14.40;67.50;;;;;;5084387;28;20483;-70
2022/05/15 05:59:27;;;;;;;8.30;7.60;;;14.50;66.10;;;;;;5087153;28;20522;-69
2022/05/15 06:01:54;;;;;;;8.60;7.63;;;14.70;65.70;;;;;;5086442;28;20426;-69
2022/05/15 06:07:06;;;;;;;8.73;7.83;;;14.90;64.60;;;;;;5081847;28;20397;-68
2022/05/15 06:09:32;;;;;;;8.50;7.78;;;14.90;64.00;;;;;;5087617;28;20426;-67
2022/05/15 06:12:00;;;;;;;9.20;8.30;;;15.00;63.80;;;;;;5089330;28;20437;-67
2022/05/15 06:14:27;;;;;;;9.55;8.00;;;15.00;63.50;;;;;;5088198;28;20425;-66
2022/05/15 06:16:54;;;;;;;8.80;7.65;;;15.10;63.10;;;;;;5090924;28;20434;-68
2022/05/15 06:19:20;;;;;;;8.25;7.55;;;15.10;62.90;;;;;;5098678;28;20429;-67
2022/05/15 06:21:47;;;;;;;8.15;7.28;;;15.10;62.80;;;;;;5090751;28;20413;-67
2022/05/15 06:24:14;;;;;;;8.50;7.70;;;15.20;63.20;;;;;;5095082;28;20996;-66
2022/05/15 06:26:41;;;;;;;8.90;8.00;;;15.20;62.90;;;;;;5095629;28;20437;-62
2022/05/15 06:29:09;;;;;;;9.90;7.70;;;15.30;63.20;;;;;;5096505;28;20428;-62
2022/05/15 06:31:35;;;;;;;8.73;7.82;;;15.40;62.80;;;;;;5099018;28;20414;-62
2022/05/15 06:34:02;;;;;;;8.73;7.93;;;15.50;62.90;;;;;;5085320;28;20523;-63
2022/05/15 06:36:29;;;;;;;8.38;7.50;;;15.60;63.00;;;;;;5092856;28;20413;-62
2022/05/15 06:38:56;;;;;;;8.13;7.22;;;15.90;61.70;;;;;;5092906;28;20475;-62
2022/05/15 06:41:22;;;;;;;8.68;7.60;;;16.00;60.90;;;;;;5091056;28;20423;-62
2022/05/15 06:43:49;;;;;;;7.70;7.10;;;16.20;60.80;;;;;;5088791;28;20504;-62
2022/05/15 06:46:18;;;;;;;7.82;7.03;;;16.40;59.40;;;;;;5087043;28;20442;-62
2022/05/15 06:48:44;;;;;;;9.73;6.70;;;16.50;59.00;;;;;;5082630;28;20475;-63
2022/05/15 06:51:14;;;;;;;7.70;7.00;;;16.60;59.10;;;;;;5085631;28;20961;-63
2022/05/15 06:53:41;;;;;;;9.52;7.68;;;16.60;58.90;;;;;;5086494;28;20491;-63
2022/05/15 06:58:52;;;;;;;7.67;6.87;;;16.70;58.30;;;;;;5086502;28;20882;-62
2022/05/15 07:01:20;;;;;;;7.23;6.53;;;16.90;58.50;;;;;;5082906;28;20844;-62
2022/05/15 07:03:46;;;;;;;7.57;6.68;;;17.10;57.80;;;;;;5086099;28;20491;-62
2022/05/15 07:06:13;;;;;;;8.68;7.15;;;17.30;57.10;;;;;;5089224;28;20460;-62
2022/05/15 07:08:40;;;;;;;7.13;6.43;;;17.50;56.60;;;;;;5086780;28;20442;-62
2022/05/15 07:11:06;;;;;;;7.23;6.50;;;17.60;56.30;;;;;;5088211;28;20605;-63
2022/05/15 07:13:33;;;;;;;7.35;6.53;;;17.70;56.50;;;;;;5081941;28;20479;-69
2022/05/15 07:16:00;;;;;;;6.80;6.10;;;17.90;55.50;;;;;;5084116;28;20432;-68
2022/05/15 07:18:28;;;;;;;7.35;6.70;;;18.00;55.20;;;;;;5078067;28;20441;-68
2022/05/15 07:20:55;;;;;;;7.13;6.28;;;18.00;55.20;;;;;;5080367;28;20426;-67
2022/05/15 07:23:23;;;;;;;6.63;6.03;;;18.10;55.60;;;;;;5088444;28;20429;-67
2022/05/15 07:25:50;;;;;;;7.10;5.97;;;18.30;54.40;;;;;;5086310;28;20437;-67
2022/05/15 07:28:17;;;;;;;6.68;5.80;;;18.60;54.10;;;;;;5082272;28;20853;-66
2022/05/15 07:30:44;;;;;;;6.85;5.70;;;18.90;53.10;;;;;;5090549;28;20487;-67
2022/05/15 07:33:10;;;;;;;9.00;6.10;;;19.00;52.00;;;;;;5084378;28;20841;-67
2022/05/15 07:35:38;;;;;;;6.50;5.90;;;19.10;51.80;;;;;;5097554;28;20439;-66
2022/05/15 07:38:05;;;;;;;6.50;5.82;;;19.20;51.70;;;;;;5088542;28;20495;-67
2022/05/15 07:40:32;;;;;;;8.32;5.80;;;19.20;52.00;;;;;;5085396;28;20434;-66
2022/05/15 07:42:58;;;;;;;6.20;5.32;;;19.30;50.90;;;;;;5080479;28;20430;-68
2022/05/15 07:45:25;;;;;;;6.43;5.30;;;19.50;51.20;;;;;;5088254;28;20854;-69
2022/05/15 07:47:52;;;;;;;8.38;5.20;;;19.60;50.40;;;;;;5087212;28;20491;-66
2022/05/15 07:50:18;;;;;;;5.40;4.90;;;19.60;50.70;;;;;;5103042;28;20484;-66
2022/05/15 07:52:47;;;;;;;6.72;5.18;;;19.70;50.30;;;;;;5097418;28;20420;-67
2022/05/15 07:55:14;;;;;;;7.18;5.22;;;19.90;50.40;;;;;;5088540;28;20898;-67
2022/05/15 07:57:41;;;;;;;6.05;5.05;;;20.20;49.70;;;;;;5087109;28;20437;-67
2022/05/15 08:00:17;;;;;;;5.03;4.53;;;20.50;48.80;;;;;;5087688;28;20430;-68
2022/05/15 08:02:45;;;;;;;9.13;4.60;;;20.60;47.80;;;;;;5089611;28;20545;-69
2022/05/15 08:08:03;;;;;;;5.90;4.72;;;20.90;47.20;;;;;;5084540;28;20421;-68
2022/05/15 08:10:32;;;;;;;6.68;4.47;;;21.00;47.80;;;;;;5080866;28;20515;-68
2022/05/15 08:12:59;;;;;;;6.82;4.20;;;21.20;46.10;;;;;;5082144;28;20500;-71
2022/05/15 08:15:26;;;;;;;6.40;4.38;;;21.30;46.30;;;;;;5086088;28;20914;-71
2022/05/15 08:17:53;;;;;;;4.68;4.00;;;21.50;46.40;;;;;;5084424;28;20482;-65
2022/05/15 08:25:51;;;;;;;5.15;3.80;;;22.30;44.40;;;;;;5087262;28;20417;-64
2022/05/15 08:28:18;;;;;;;5.03;3.95;;;22.70;42.80;;;;;;5085070;28;20881;-64
2022/05/15 08:30:45;;;;;;;6.15;3.75;;;22.90;42.90;;;;;;5082495;28;20494;-64
2022/05/15 08:33:12;;;;;;;5.60;4.15;;;23.00;42.60;;;;;;5086303;28;20457;-64
2022/05/15 08:35:39;;;;;;;5.20;3.60;;;23.30;42.20;;;;;;5079726;28;20434;-66
2022/05/15 08:38:08;;;;;;;7.10;3.80;;;23.60;40.60;;;;;;5086588;28;20909;-64
2022/05/15 08:40:45;;;;;;;5.50;3.60;;;23.70;40.70;;;;;;5086844;28;20471;-63
2022/05/15 08:43:12;;;;;;;5.47;3.70;;;23.70;39.70;;;;;;5081532;28;20422;-62
2022/05/15 08:45:43;;;;;;;5.22;3.30;;;23.70;39.10;;;;;;5088574;28;20414;-62
2022/05/15 08:48:13;;;;;;;3.88;3.30;;;23.60;38.90;;;;;;5084811;28;20429;-62
2022/05/15 08:50:46;;;;;;;5.20;3.63;;;23.60;40.00;;;;;;5091521;28;20433;-63
2022/05/15 08:53:19;;;;;;;5.75;3.50;;;23.90;38.90;;;;;;5084567;28;20492;-63
2022/05/15 08:55:55;;;;;;;4.40;3.30;;;24.00;38.70;;;;;;5084866;28;20436;-67
2022/05/15 08:58:26;;;;;;;5.30;3.25;;;24.10;38.90;;;;;;5083225;28;20593;-68
2022/05/15 09:00:55;;;;;;;4.30;3.10;;;24.20;38.60;;;;;;5082609;28;20915;-68
2022/05/15 09:03:23;;;;;;;4.95;3.10;;;24.40;37.70;;;;;;5095261;28;20416;-68
2022/05/15 09:05:55;;;;;;;4.70;3.45;;;24.50;38.00;;;;;;5096022;28;20428;-67
2022/05/15 09:08:50;;;;;;;4.18;2.78;;;24.60;38.10;;;;;;5099616;28;20435;-68
2022/05/15 09:11:31;;;;;;;4.00;2.75;;;24.80;37.30;;;;;;5091007;28;21092;-67
2022/05/15 09:14:07;;;;;;;4.28;2.83;;;25.10;37.20;;;;;;5092894;28;20505;-68
2022/05/15 09:16:35;;;;;;;3.67;2.43;;;25.30;35.70;;;;;;5095183;28;20468;-67
2022/05/15 09:19:06;;;;;;;4.40;2.75;;;25.50;35.00;;;;;;5088030;28;20443;-67
2022/05/15 09:21:33;;;;;;;5.40;2.40;;;25.80;33.50;;;;;;5098206;28;20508;-67
2022/05/15 09:24:06;;;;;;;3.80;2.47;;;25.80;33.50;;;;;;5096723;28;20794;-67
2022/05/15 09:26:43;;;;;;;3.83;2.30;;;25.70;33.30;;;;;;5092606;28;20449;-67
2022/05/15 09:29:17;;;;;;;4.10;2.40;;;25.60;34.30;;;;;;5097063;28;20454;-67
2022/05/15 09:31:44;;;;;;;5.07;2.60;;;25.90;33.30;;;;;;5091756;28;21748;-67
2022/05/15 09:34:24;;;;;;;4.80;2.70;;;26.20;33.30;;;;;;5091487;28;20517;-68
2022/05/15 09:36:52;;;;;;;3.30;2.58;;;26.30;31.60;;;;;;5097375;28;20421;-67
2022/05/15 09:39:26;;;;;;;3.83;2.30;;;26.50;32.10;;;;;;5107918;28;20412;-68
2022/05/15 09:44:58;;;;;;;3.83;2.38;;;26.70;31.00;;;;;;5112444;22;20440;-72
2022/05/15 09:47:32;;;;;;;3.50;2.20;;;26.90;29.70;;;;;;5061207;28;20434;-72
2022/05/15 09:49:59;;;;;;;5.90;2.60;;;26.70;31.10;;;;;;5054739;28;20457;-72
2022/05/15 09:52:31;;;;;;;3.58;2.30;;;26.70;31.00;;;;;;5062364;28;20431;-72
2022/05/15 09:55:10;;;;;;;3.95;2.20;;;27.00;30.80;;;;;;5063500;28;20514;-72
2022/05/15 09:57:36;;;;;;;4.55;2.30;;;27.30;29.10;;;;;;5068162;28;20418;-72
2022/05/15 10:00:08;;;;;;;4.45;2.20;;;27.30;30.40;;;;;;5071711;28;20488;-72
2022/05/15 10:02:41;;;;;;;3.70;2.00;;;27.50;30.60;;;;;;5064989;28;21566;-72
2022/05/15 10:05:17;;;;;;;4.40;2.20;;;27.90;29.70;;;;;;5063409;28;20454;-72
2022/05/15 10:07:57;;;;;;;3.20;1.70;;;28.30;29.30;;;;;;5065683;28;20924;-72
2022/05/15 10:10:31;;;;;;;4.28;2.10;;;28.50;29.10;;;;;;5064529;28;20580;-73
2022/05/15 10:13:04;;;;;;;3.78;2.33;;;28.60;27.90;;;;;;5064754;28;20804;-73
2022/05/15 10:15:39;;;;;;;3.22;2.00;;;28.50;28.20;;;;;;5070310;28;20965;-72
2022/05/15 10:18:08;;;;;;;3.45;2.00;;;28.40;28.00;;;;;;5070648;28;20480;-73
2022/05/15 10:20:40;;;;;;;2.30;1.80;;;28.40;27.40;;;;;;5072092;28;20418;-73
2022/05/15 10:23:10;;;;;;;4.22;2.00;;;28.40;27.80;;;;;;5071869;28;20432;-72
2022/05/15 10:25:46;;;;;;;3.50;1.98;;;28.60;28.10;;;;;;5072608;28;20498;-73
2022/05/15 10:28:23;;;;;;;3.22;1.90;;;28.90;27.80;;;;;;5071531;28;20427;-73
2022/05/15 10:30:57;;;;;;;2.80;1.63;;;29.20;27.10;;;;;;5072258;28;20469;-73
2022/05/15 10:33:24;;;;;;;3.60;2.10;;;29.40;27.50;;;;;;5066909;28;21043;-73
2022/05/15 10:35:59;;;;;;;3.00;1.93;;;29.30;27.50;;;;;;5066069;28;20489;-73
2022/05/15 10:38:41;;;;;;;2.78;1.70;;;29.20;27.90;;;;;;5064988;28;20773;-72
2022/05/15 10:41:17;;;;;;;3.03;1.95;;;29.30;27.80;;;;;;5073420;28;20478;-72
2022/05/15 10:44:00;;;;;;;2.63;2.00;;;29.40;27.20;;;;;;5066868;28;20426;-73
2022/05/15 10:46:34;;;;;;;3.17;1.77;;;29.30;27.30;;;;;;5054153;28;20407;-73
2022/05/15 10:49:13;;;;;;;3.75;2.08;;;29.30;27.90;;;;;;5057483;28;20427;-73
2022/05/15 10:51:53;;;;;;;3.15;1.90;;;29.60;27.00;;;;;;5062968;28;20987;-73
2022/05/15 10:57:37;;;;;;;3.10;1.77;;;30.10;26.50;;;;;;5064598;28;20479;-72
2022/05/15 11:00:09;;;;;;;3.95;2.00;;;30.10;25.80;;;;;;5070146;28;20966;-72
2022/05/15 11:02:56;;;;;;;2.60;1.60;;;29.90;26.50;;;;;;5071203;28;20488;-73
2022/05/15 11:05:28;;;;;;;2.90;1.60;;;30.10;26.10;;;;;;5080539;28;20471;-73
2022/05/15 11:08:02;;;;;;;3.60;1.90;;;30.20;25.90;;;;;;5078231;28;20432;-73
2022/05/15 11:10:34;;;;;;;3.10;2.00;;;30.30;26.20;;;;;;5063767;28;21154;-73
2022/05/15 11:13:11;;;;;;;2.55;1.70;;;30.20;25.00;;;;;;5069756;28;20431;-73
2022/05/15 11:15:47;;;;;;;2.67;1.77;;;30.00;25.10;;;;;;5070576;28;20925;-73
2022/05/15 11:18:29;;;;;;;2.42;1.50;;;30.20;25.70;;;;;;5090228;28;20432;-74
2022/05/15 11:20:59;;;;;;;2.30;1.65;;;30.50;25.40;;;;;;5071411;28;20412;-74
2022/05/15 11:23:29;;;;;;;3.70;2.60;;;30.70;25.10;;;;;;5066149;28;20442;-73
2022/05/15 11:25:59;;;;;;;2.43;1.60;;;30.60;25.20;;;;;;5074732;28;20882;-71
2022/05/15 11:28:34;;;;;;;2.58;1.63;;;30.50;24.90;;;;;;5064877;28;20438;-74
2022/05/15 11:31:04;;;;;;;2.70;1.80;;;30.20;25.80;;;;;;5065447;28;20461;-74
2022/05/15 11:33:34;;;;;;;3.72;1.85;;;30.40;25.50;;;;;;5071361;28;20961;-74
2022/05/15 11:36:10;;;;;;;2.10;1.40;;;30.50;24.60;;;;;;5064800;28;20973;-73
2022/05/15 11:38:47;;;;;;;2.10;1.40;;;30.50;25.00;;;;;;5064394;28;20431;-73
2022/05/15 11:41:38;;;;;;;1.80;1.50;;;30.10;24.80;;;;;;5063918;28;20419;-73
2022/05/15 11:44:10;;;;;;;2.45;1.80;;;29.90;26.00;;;;;;5058615;28;20537;-73
2022/05/15 11:46:59;;;;;;;2.20;1.70;;;29.90;25.50;;;;;;5074146;28;20468;-73
2022/05/15 11:49:32;;;;;;;2.08;1.50;;;29.90;25.00;;;;;;5092323;28;21082;-73
2022/05/15 11:52:18;;;;;;;2.90;1.70;;;29.90;24.50;;;;;;5089206;28;20414;-73
2022/05/15 11:54:47;;;;;;;2.60;1.50;;;29.90;24.40;;;;;;5087330;28;21024;-73
2022/05/15 11:57:34;;;;;;;3.80;1.70;;;30.10;23.80;;;;;;5091415;28;20475;-73
2022/05/15 12:00:06;;;;;;;2.58;1.60;;;29.90;23.50;;;;;;5084475;28;20487;-73
2022/05/15 12:02:48;;;;;;;2.03;1.52;;;29.60;24.00;;;;;;5088724;28;20417;-73
2022/05/15 12:05:25;;;;;;;3.35;1.70;;;29.80;23.90;;;;;;5077496;28;20432;-73
2022/05/15 12:07:55;;;;;;;3.38;1.60;;;29.90;23.40;;;;;;5087220;28;20440;-73
2022/05/15 12:10:54;;;;;;;2.97;1.67;;;29.90;23.50;;;;;;5078164;28;20900;-73
2022/05/15 12:13:34;;;;;;;3.20;1.60;;;29.70;23.50;;;;;;5078892;28;20516;-73
2022/05/15 12:16:29;;;;;;;3.20;1.40;;;29.80;24.50;;;;;;5086353;28;20424;-72
2022/05/15 12:19:05;;;;;;;2.22;1.70;;;30.20;24.80;;;;;;5083638;28;20497;-72
2022/05/15 12:21:38;;;;;;;3.15;1.70;;;30.70;24.00;;;;;;5085361;28;20436;-73
2022/05/15 12:27:03;;;;;;;2.70;1.60;;;31.50;23.10;;;;;;5090909;28;20603;-72
2022/05/15 12:29:41;;;;;;;2.28;1.38;;;31.50;22.80;;;;;;5087952;28;20441;-71
2022/05/15 12:32:12;;;;;;;2.17;1.60;;;31.10;22.50;;;;;;5079198;28;20432;-73
2022/05/15 12:34:46;;;;;;;2.60;1.65;;;30.50;23.30;;;;;;5085647;28;20788;-72
2022/05/15 12:37:21;;;;;;;3.10;1.60;;;30.40;23.70;;;;;;5090648;28;20893;-71
2022/05/15 12:39:52;;;;;;;2.53;1.80;;;30.30;24.00;;;;;;5089229;28;20425;-72
2022/05/15 12:42:23;;;;;;;2.80;1.50;;;30.30;24.80;;;;;;5088537;28;20414;-71
2022/05/15 12:45:03;;;;;;;3.50;1.45;;;30.60;24.50;;;;;;5092064;28;20434;-71
2022/05/15 12:47:33;;;;;;;2.40;1.50;;;30.90;23.90;;;;;;5086787;28;20773;-72
2022/05/15 12:50:02;;;;;;;1.90;1.20;;;31.00;23.40;;;;;;5083857;28;20477;-72
2022/05/15 12:52:30;;;;;;;2.73;1.60;;;31.20;23.80;;;;;;5090032;28;20841;-71
2022/05/15 12:55:00;;;;;;;2.10;1.70;;;31.20;22.90;;;;;;5093222;28;21060;-72
2022/05/15 12:57:27;;;;;;;3.38;1.52;;;31.20;23.10;;;;;;5099475;28;20477;-72
2022/05/15 12:59:54;;;;;;;3.38;1.60;;;31.20;23.30;;;;;;5090194;28;20444;-72
2022/05/15 13:02:29;;;;;;;3.20;1.50;;;31.20;22.80;;;;;;5081952;28;20454;-72
2022/05/15 13:04:59;;;;;;;2.65;1.48;;;31.00;23.00;;;;;;5086056;28;20969;-72
2022/05/15 13:07:27;;;;;;;3.05;1.50;;;31.10;23.20;;;;;;5085237;28;20422;-72
2022/05/15 13:09:59;;;;;;;3.47;2.17;;;30.90;22.90;;;;;;5087224;28;20448;-73
2022/05/15 13:12:26;;;;;;;3.63;2.17;;;30.70;23.30;;;;;;5086012;28;20890;-73
2022/05/15 13:14:54;;;;;;;2.90;1.50;;;30.70;23.00;;;;;;5092705;28;20984;-72
2022/05/15 13:17:29;;;;;;;2.10;1.73;;;30.60;22.60;;;;;;5076773;28;20440;-72
2022/05/15 13:19:58;;;;;;;2.00;1.40;;;30.50;22.60;;;;;;5079741;28;20796;-72
2022/05/15 13:22:26;;;;;;;1.85;1.30;;;30.70;23.80;;;;;;5084722;28;21244;-72
2022/05/15 13:24:58;;;;;;;1.90;1.40;;;31.00;21.50;;;;;;5087677;28;20409;-72